<?xml version="1.0" encoding="UTF-8" standalone="no" ?>
<gpx xmlns="http://www.topografix.com/GPX/1/1" xmlns:xsi="http://www.w3.org/2001/XMLSchema-instance" xsi:schemaLocation="http://www.topografix.com/GPX/1/1 http://www.topografix.com/GPX/1/1/gpx.xsd" version="1.1" creator="VisuGPX - https://www.visugpx.com">
  <metadata>
    <name>Trou de l'Infernet</name>
    <desc><![CDATA[deux dollines : le Trou de l'Infernet et le Trou du Filleul]]></desc>
  </metadata>
  <trk>
    <name><![CDATA[OR-6157763--Châteauvert:Trou de l'Infernet]]></name>
    <trkseg>
      <trkpt lat="43.49839" lon="6.00896">
        <ele>254</ele>
        <time>2016-05-30T19:35:25Z</time>
      </trkpt>
      <trkpt lat="43.49818" lon="6.00896">
        <ele>253</ele>
        <time>2016-05-30T19:37:25Z</time>
      </trkpt>
      <trkpt lat="43.49801" lon="6.00885">
        <ele>254</ele>
        <time>2016-05-30T19:39:25Z</time>
      </trkpt>
      <trkpt lat="43.49783" lon="6.00872">
        <ele>255</ele>
        <time>2016-05-30T19:41:25Z</time>
      </trkpt>
      <trkpt lat="43.49776" lon="6.0082">
        <ele>256</ele>
        <time>2016-05-30T19:43:25Z</time>
      </trkpt>
      <trkpt lat="43.49767" lon="6.00798">
        <ele>257</ele>
        <time>2016-05-30T19:45:25Z</time>
      </trkpt>
      <trkpt lat="43.49755" lon="6.00777">
        <ele>257</ele>
        <time>2016-05-30T19:47:25Z</time>
      </trkpt>
      <trkpt lat="43.4974" lon="6.00759">
        <ele>257</ele>
        <time>2016-05-30T19:49:25Z</time>
      </trkpt>
      <trkpt lat="43.4973" lon="6.00739">
        <ele>257</ele>
        <time>2016-05-30T19:51:25Z</time>
      </trkpt>
      <trkpt lat="43.49716" lon="6.00691">
        <ele>256</ele>
        <time>2016-05-30T19:53:25Z</time>
      </trkpt>
      <trkpt lat="43.49712" lon="6.0064">
        <ele>258</ele>
        <time>2016-05-30T19:55:25Z</time>
      </trkpt>
      <trkpt lat="43.49709" lon="6.00615">
        <ele>259</ele>
        <time>2016-05-30T19:57:25Z</time>
      </trkpt>
      <trkpt lat="43.49699" lon="6.00594">
        <ele>260</ele>
        <time>2016-05-30T19:59:25Z</time>
      </trkpt>
      <trkpt lat="43.49684" lon="6.00577">
        <ele>261</ele>
        <time>2016-05-30T20:01:25Z</time>
      </trkpt>
      <trkpt lat="43.49674" lon="6.00556">
        <ele>261</ele>
        <time>2016-05-30T20:03:25Z</time>
      </trkpt>
      <trkpt lat="43.49664" lon="6.00535">
        <ele>262</ele>
        <time>2016-05-30T20:05:25Z</time>
      </trkpt>
      <trkpt lat="43.49651" lon="6.00516">
        <ele>264</ele>
        <time>2016-05-30T20:07:25Z</time>
      </trkpt>
      <trkpt lat="43.49648" lon="6.00491">
        <ele>264</ele>
        <time>2016-05-30T20:09:25Z</time>
      </trkpt>
      <trkpt lat="43.49656" lon="6.00468">
        <ele>264</ele>
        <time>2016-05-30T20:11:25Z</time>
      </trkpt>
      <trkpt lat="43.49658" lon="6.00443">
        <ele>265</ele>
        <time>2016-05-30T20:13:25Z</time>
      </trkpt>
      <trkpt lat="43.49665" lon="6.00418">
        <ele>265</ele>
        <time>2016-05-30T20:15:25Z</time>
      </trkpt>
      <trkpt lat="43.49668" lon="6.00393">
        <ele>265</ele>
        <time>2016-05-30T20:17:25Z</time>
      </trkpt>
      <trkpt lat="43.49672" lon="6.00368">
        <ele>265</ele>
        <time>2016-05-30T20:19:25Z</time>
      </trkpt>
      <trkpt lat="43.49672" lon="6.00342">
        <ele>264</ele>
        <time>2016-05-30T20:21:25Z</time>
      </trkpt>
      <trkpt lat="43.49679" lon="6.00318">
        <ele>264</ele>
        <time>2016-05-30T20:23:25Z</time>
      </trkpt>
      <trkpt lat="43.49678" lon="6.00292">
        <ele>262</ele>
        <time>2016-05-30T20:25:25Z</time>
      </trkpt>
      <trkpt lat="43.49668" lon="6.00271">
        <ele>259</ele>
        <time>2016-05-30T20:27:25Z</time>
      </trkpt>
      <trkpt lat="43.4966" lon="6.00247">
        <ele>259</ele>
        <time>2016-05-30T20:29:25Z</time>
      </trkpt>
      <trkpt lat="43.49661" lon="6.00222">
        <ele>259</ele>
        <time>2016-05-30T20:31:25Z</time>
      </trkpt>
      <trkpt lat="43.49666" lon="6.00197">
        <ele>258</ele>
        <time>2016-05-30T20:33:25Z</time>
      </trkpt>
      <trkpt lat="43.49666" lon="6.00171">
        <ele>258</ele>
        <time>2016-05-30T20:35:25Z</time>
      </trkpt>
      <trkpt lat="43.49664" lon="6.00147">
        <ele>258</ele>
        <time>2016-05-30T20:37:25Z</time>
      </trkpt>
      <trkpt lat="43.49652" lon="6.00128">
        <ele>260</ele>
        <time>2016-05-30T20:39:25Z</time>
      </trkpt>
      <trkpt lat="43.49639" lon="6.00111">
        <ele>262</ele>
        <time>2016-05-30T20:41:25Z</time>
      </trkpt>
      <trkpt lat="43.49635" lon="6.00086">
        <ele>262</ele>
        <time>2016-05-30T20:43:25Z</time>
      </trkpt>
      <trkpt lat="43.49633" lon="6.00061">
        <ele>263</ele>
        <time>2016-05-30T20:45:25Z</time>
      </trkpt>
      <trkpt lat="43.49635" lon="6.00035">
        <ele>262</ele>
        <time>2016-05-30T20:47:25Z</time>
      </trkpt>
      <trkpt lat="43.49645" lon="6.00013">
        <ele>260</ele>
        <time>2016-05-30T20:49:25Z</time>
      </trkpt>
      <trkpt lat="43.49661" lon="6">
        <ele>259</ele>
        <time>2016-05-30T20:51:25Z</time>
      </trkpt>
      <trkpt lat="43.49675" lon="5.99985">
        <ele>257</ele>
        <time>2016-05-30T20:53:25Z</time>
      </trkpt>
      <trkpt lat="43.49691" lon="5.9997">
        <ele>256</ele>
        <time>2016-05-30T20:55:25Z</time>
      </trkpt>
      <trkpt lat="43.49706" lon="5.99955">
        <ele>256</ele>
        <time>2016-05-30T20:57:25Z</time>
      </trkpt>
      <trkpt lat="43.49724" lon="5.99946">
        <ele>255</ele>
        <time>2016-05-30T20:59:25Z</time>
      </trkpt>
      <trkpt lat="43.49739" lon="5.99931">
        <ele>256</ele>
        <time>2016-05-30T21:01:25Z</time>
      </trkpt>
      <trkpt lat="43.49755" lon="5.99917">
        <ele>256</ele>
        <time>2016-05-30T21:03:25Z</time>
      </trkpt>
      <trkpt lat="43.49769" lon="5.99899">
        <ele>257</ele>
        <time>2016-05-30T21:05:25Z</time>
      </trkpt>
      <trkpt lat="43.49785" lon="5.99886">
        <ele>258</ele>
        <time>2016-05-30T21:07:25Z</time>
      </trkpt>
      <trkpt lat="43.49802" lon="5.99875">
        <ele>259</ele>
        <time>2016-05-30T21:09:25Z</time>
      </trkpt>
      <trkpt lat="43.49818" lon="5.99861">
        <ele>261</ele>
        <time>2016-05-30T21:11:25Z</time>
      </trkpt>
      <trkpt lat="43.49834" lon="5.99847">
        <ele>263</ele>
        <time>2016-05-30T21:13:25Z</time>
      </trkpt>
      <trkpt lat="43.49849" lon="5.99832">
        <ele>266</ele>
        <time>2016-05-30T21:15:25Z</time>
      </trkpt>
      <trkpt lat="43.49864" lon="5.99815">
        <ele>269</ele>
        <time>2016-05-30T21:17:25Z</time>
      </trkpt>
      <trkpt lat="43.49874" lon="5.99794">
        <ele>269</ele>
        <time>2016-05-30T21:19:25Z</time>
      </trkpt>
      <trkpt lat="43.49879" lon="5.9977">
        <ele>269</ele>
        <time>2016-05-30T21:21:25Z</time>
      </trkpt>
      <trkpt lat="43.49889" lon="5.99749">
        <ele>270</ele>
        <time>2016-05-30T21:23:25Z</time>
      </trkpt>
      <trkpt lat="43.4989" lon="5.99723">
        <ele>269</ele>
        <time>2016-05-30T21:25:25Z</time>
      </trkpt>
      <trkpt lat="43.49898" lon="5.997">
        <ele>271</ele>
        <time>2016-05-30T21:27:25Z</time>
      </trkpt>
      <trkpt lat="43.49902" lon="5.99676">
        <ele>271</ele>
        <time>2016-05-30T21:29:25Z</time>
      </trkpt>
      <trkpt lat="43.49906" lon="5.99651">
        <ele>271</ele>
        <time>2016-05-30T21:31:25Z</time>
      </trkpt>
      <trkpt lat="43.49917" lon="5.9963">
        <ele>271</ele>
        <time>2016-05-30T21:33:25Z</time>
      </trkpt>
      <trkpt lat="43.49927" lon="5.99609">
        <ele>270</ele>
        <time>2016-05-30T21:35:25Z</time>
      </trkpt>
      <trkpt lat="43.49943" lon="5.99595">
        <ele>271</ele>
        <time>2016-05-30T21:37:25Z</time>
      </trkpt>
      <trkpt lat="43.4996" lon="5.99588">
        <ele>272</ele>
        <time>2016-05-30T21:39:25Z</time>
      </trkpt>
      <trkpt lat="43.49977" lon="5.99574">
        <ele>274</ele>
        <time>2016-05-30T21:41:25Z</time>
      </trkpt>
      <trkpt lat="43.49991" lon="5.99557">
        <ele>275</ele>
        <time>2016-05-30T21:43:25Z</time>
      </trkpt>
      <trkpt lat="43.50006" lon="5.99541">
        <ele>274</ele>
        <time>2016-05-30T21:45:25Z</time>
      </trkpt>
      <trkpt lat="43.50015" lon="5.9952">
        <ele>273</ele>
        <time>2016-05-30T21:47:25Z</time>
      </trkpt>
      <trkpt lat="43.50015" lon="5.99493">
        <ele>273</ele>
        <time>2016-05-30T21:49:25Z</time>
      </trkpt>
      <trkpt lat="43.50013" lon="5.99468">
        <ele>276</ele>
        <time>2016-05-30T21:51:25Z</time>
      </trkpt>
      <trkpt lat="43.50022" lon="5.99445">
        <ele>277</ele>
        <time>2016-05-30T21:53:25Z</time>
      </trkpt>
      <trkpt lat="43.50035" lon="5.99427">
        <ele>277</ele>
        <time>2016-05-30T21:55:25Z</time>
      </trkpt>
      <trkpt lat="43.50042" lon="5.99404">
        <ele>278</ele>
        <time>2016-05-30T21:57:25Z</time>
      </trkpt>
      <trkpt lat="43.50047" lon="5.99379">
        <ele>278</ele>
        <time>2016-05-30T21:59:25Z</time>
      </trkpt>
      <trkpt lat="43.50057" lon="5.99357">
        <ele>277</ele>
        <time>2016-05-30T22:01:25Z</time>
      </trkpt>
      <trkpt lat="43.50061" lon="5.99331">
        <ele>277</ele>
        <time>2016-05-30T22:03:25Z</time>
      </trkpt>
      <trkpt lat="43.50065" lon="5.99307">
        <ele>276</ele>
        <time>2016-05-30T22:05:25Z</time>
      </trkpt>
      <trkpt lat="43.50073" lon="5.99283">
        <ele>274</ele>
        <time>2016-05-30T22:07:25Z</time>
      </trkpt>
      <trkpt lat="43.50078" lon="5.99259">
        <ele>273</ele>
        <time>2016-05-30T22:09:25Z</time>
      </trkpt>
      <trkpt lat="43.5008" lon="5.99232">
        <ele>275</ele>
        <time>2016-05-30T22:11:25Z</time>
      </trkpt>
      <trkpt lat="43.50103" lon="5.99182">
        <ele>281</ele>
        <time>2016-05-30T22:13:25Z</time>
      </trkpt>
      <trkpt lat="43.50086" lon="5.99169">
        <ele>281</ele>
        <time>2016-05-30T22:15:25Z</time>
      </trkpt>
      <trkpt lat="43.50082" lon="5.99144">
        <ele>282</ele>
        <time>2016-05-30T22:17:25Z</time>
      </trkpt>
      <trkpt lat="43.50068" lon="5.99127">
        <ele>282</ele>
        <time>2016-05-30T22:19:25Z</time>
      </trkpt>
      <trkpt lat="43.50063" lon="5.99102">
        <ele>281</ele>
        <time>2016-05-30T22:21:25Z</time>
      </trkpt>
      <trkpt lat="43.50061" lon="5.99077">
        <ele>281</ele>
        <time>2016-05-30T22:23:25Z</time>
      </trkpt>
      <trkpt lat="43.50054" lon="5.99053">
        <ele>278</ele>
        <time>2016-05-30T22:25:25Z</time>
      </trkpt>
      <trkpt lat="43.50048" lon="5.99029">
        <ele>275</ele>
        <time>2016-05-30T22:27:25Z</time>
      </trkpt>
      <trkpt lat="43.50039" lon="5.99007">
        <ele>272</ele>
        <time>2016-05-30T22:29:25Z</time>
      </trkpt>
      <trkpt lat="43.50025" lon="5.9899">
        <ele>267</ele>
        <time>2016-05-30T22:31:25Z</time>
      </trkpt>
      <trkpt lat="43.50016" lon="5.98968">
        <ele>267</ele>
        <time>2016-05-30T22:33:25Z</time>
      </trkpt>
      <trkpt lat="43.50008" lon="5.98946">
        <ele>269</ele>
        <time>2016-05-30T22:35:25Z</time>
      </trkpt>
      <trkpt lat="43.49995" lon="5.98926">
        <ele>271</ele>
        <time>2016-05-30T22:37:25Z</time>
      </trkpt>
      <trkpt lat="43.49981" lon="5.98907">
        <ele>273</ele>
        <time>2016-05-30T22:39:25Z</time>
      </trkpt>
      <trkpt lat="43.4997" lon="5.98887">
        <ele>273</ele>
        <time>2016-05-30T22:41:25Z</time>
      </trkpt>
      <trkpt lat="43.49967" lon="5.98863">
        <ele>272</ele>
        <time>2016-05-30T22:43:25Z</time>
      </trkpt>
      <trkpt lat="43.49957" lon="5.98841">
        <ele>271</ele>
        <time>2016-05-30T22:45:25Z</time>
      </trkpt>
      <trkpt lat="43.49959" lon="5.98816">
        <ele>271</ele>
        <time>2016-05-30T22:47:25Z</time>
      </trkpt>
      <trkpt lat="43.49946" lon="5.98798">
        <ele>271</ele>
        <time>2016-05-30T22:49:25Z</time>
      </trkpt>
      <trkpt lat="43.49943" lon="5.98772">
        <ele>271</ele>
        <time>2016-05-30T22:51:25Z</time>
      </trkpt>
      <trkpt lat="43.4994" lon="5.98746">
        <ele>271</ele>
        <time>2016-05-30T22:53:25Z</time>
      </trkpt>
      <trkpt lat="43.49943" lon="5.9872">
        <ele>272</ele>
        <time>2016-05-30T22:55:25Z</time>
      </trkpt>
      <trkpt lat="43.49952" lon="5.98698">
        <ele>271</ele>
        <time>2016-05-30T22:57:25Z</time>
      </trkpt>
      <trkpt lat="43.49957" lon="5.98673">
        <ele>271</ele>
        <time>2016-05-30T22:59:25Z</time>
      </trkpt>
      <trkpt lat="43.49963" lon="5.98649">
        <ele>271</ele>
        <time>2016-05-30T23:01:25Z</time>
      </trkpt>
      <trkpt lat="43.49963" lon="5.98624">
        <ele>270</ele>
        <time>2016-05-30T23:03:25Z</time>
      </trkpt>
      <trkpt lat="43.49957" lon="5.98599">
        <ele>270</ele>
        <time>2016-05-30T23:05:25Z</time>
      </trkpt>
      <trkpt lat="43.49942" lon="5.98582">
        <ele>271</ele>
        <time>2016-05-30T23:07:25Z</time>
      </trkpt>
      <trkpt lat="43.49935" lon="5.98559">
        <ele>271</ele>
        <time>2016-05-30T23:09:25Z</time>
      </trkpt>
      <trkpt lat="43.49924" lon="5.98538">
        <ele>271</ele>
        <time>2016-05-30T23:11:25Z</time>
      </trkpt>
      <trkpt lat="43.49916" lon="5.98515">
        <ele>271</ele>
        <time>2016-05-30T23:13:25Z</time>
      </trkpt>
      <trkpt lat="43.49904" lon="5.98495">
        <ele>270</ele>
        <time>2016-05-30T23:15:25Z</time>
      </trkpt>
      <trkpt lat="43.49907" lon="5.98469">
        <ele>268</ele>
        <time>2016-05-30T23:17:25Z</time>
      </trkpt>
      <trkpt lat="43.49916" lon="5.98446">
        <ele>266</ele>
        <time>2016-05-30T23:19:25Z</time>
      </trkpt>
      <trkpt lat="43.49921" lon="5.98421">
        <ele>264</ele>
        <time>2016-05-30T23:21:25Z</time>
      </trkpt>
      <trkpt lat="43.49932" lon="5.98399">
        <ele>264</ele>
        <time>2016-05-30T23:23:25Z</time>
      </trkpt>
      <trkpt lat="43.49939" lon="5.98376">
        <ele>263</ele>
        <time>2016-05-30T23:25:25Z</time>
      </trkpt>
      <trkpt lat="43.49947" lon="5.98351">
        <ele>263</ele>
        <time>2016-05-30T23:27:25Z</time>
      </trkpt>
      <trkpt lat="43.49953" lon="5.98326">
        <ele>263</ele>
        <time>2016-05-30T23:29:25Z</time>
      </trkpt>
      <trkpt lat="43.49957" lon="5.98302">
        <ele>263</ele>
        <time>2016-05-30T23:31:25Z</time>
      </trkpt>
      <trkpt lat="43.49974" lon="5.98256">
        <ele>262</ele>
        <time>2016-05-30T23:33:25Z</time>
      </trkpt>
      <trkpt lat="43.49993" lon="5.9821">
        <ele>262</ele>
        <time>2016-05-30T23:35:25Z</time>
      </trkpt>
      <trkpt lat="43.49998" lon="5.98185">
        <ele>263</ele>
        <time>2016-05-30T23:37:25Z</time>
      </trkpt>
      <trkpt lat="43.50001" lon="5.98159">
        <ele>263</ele>
        <time>2016-05-30T23:39:25Z</time>
      </trkpt>
      <trkpt lat="43.50011" lon="5.98137">
        <ele>263</ele>
        <time>2016-05-30T23:41:25Z</time>
      </trkpt>
      <trkpt lat="43.50019" lon="5.98115">
        <ele>263</ele>
        <time>2016-05-30T23:43:25Z</time>
      </trkpt>
      <trkpt lat="43.50028" lon="5.98092">
        <ele>262</ele>
        <time>2016-05-30T23:45:25Z</time>
      </trkpt>
      <trkpt lat="43.50034" lon="5.98068">
        <ele>262</ele>
        <time>2016-05-30T23:47:25Z</time>
      </trkpt>
      <trkpt lat="43.50043" lon="5.98044">
        <ele>261</ele>
        <time>2016-05-30T23:49:25Z</time>
      </trkpt>
      <trkpt lat="43.5005" lon="5.9802">
        <ele>261</ele>
        <time>2016-05-30T23:51:25Z</time>
      </trkpt>
      <trkpt lat="43.50058" lon="5.97997">
        <ele>261</ele>
        <time>2016-05-30T23:53:25Z</time>
      </trkpt>
      <trkpt lat="43.50065" lon="5.97973">
        <ele>261</ele>
        <time>2016-05-30T23:55:25Z</time>
      </trkpt>
      <trkpt lat="43.50071" lon="5.97949">
        <ele>261</ele>
        <time>2016-05-30T23:57:25Z</time>
      </trkpt>
      <trkpt lat="43.5008" lon="5.97925">
        <ele>261</ele>
        <time>2016-05-30T23:59:25Z</time>
      </trkpt>
      <trkpt lat="43.50086" lon="5.979">
        <ele>261</ele>
        <time>2016-05-31T00:01:25Z</time>
      </trkpt>
      <trkpt lat="43.50094" lon="5.97877">
        <ele>261</ele>
        <time>2016-05-31T00:03:25Z</time>
      </trkpt>
      <trkpt lat="43.50102" lon="5.97849">
        <ele>261</ele>
        <time>2016-05-31T00:05:25Z</time>
      </trkpt>
      <trkpt lat="43.50112" lon="5.97828">
        <ele>261</ele>
        <time>2016-05-31T00:07:25Z</time>
      </trkpt>
      <trkpt lat="43.50116" lon="5.97802">
        <ele>260</ele>
        <time>2016-05-31T00:09:25Z</time>
      </trkpt>
      <trkpt lat="43.50123" lon="5.97779">
        <ele>260</ele>
        <time>2016-05-31T00:11:25Z</time>
      </trkpt>
      <trkpt lat="43.50129" lon="5.97755">
        <ele>260</ele>
        <time>2016-05-31T00:13:25Z</time>
      </trkpt>
      <trkpt lat="43.50141" lon="5.97706">
        <ele>259</ele>
        <time>2016-05-31T00:15:25Z</time>
      </trkpt>
      <trkpt lat="43.5015" lon="5.97683">
        <ele>259</ele>
        <time>2016-05-31T00:17:25Z</time>
      </trkpt>
      <trkpt lat="43.50159" lon="5.97661">
        <ele>259</ele>
        <time>2016-05-31T00:19:25Z</time>
      </trkpt>
      <trkpt lat="43.50167" lon="5.97638">
        <ele>259</ele>
        <time>2016-05-31T00:21:25Z</time>
      </trkpt>
      <trkpt lat="43.50172" lon="5.97614">
        <ele>258</ele>
        <time>2016-05-31T00:23:25Z</time>
      </trkpt>
      <trkpt lat="43.50179" lon="5.97591">
        <ele>258</ele>
        <time>2016-05-31T00:25:25Z</time>
      </trkpt>
      <trkpt lat="43.50189" lon="5.9757">
        <ele>258</ele>
        <time>2016-05-31T00:27:25Z</time>
      </trkpt>
      <trkpt lat="43.50192" lon="5.97545">
        <ele>259</ele>
        <time>2016-05-31T00:29:25Z</time>
      </trkpt>
      <trkpt lat="43.50197" lon="5.9752">
        <ele>259</ele>
        <time>2016-05-31T00:31:25Z</time>
      </trkpt>
      <trkpt lat="43.50203" lon="5.97496">
        <ele>260</ele>
        <time>2016-05-31T00:33:25Z</time>
      </trkpt>
      <trkpt lat="43.50213" lon="5.97473">
        <ele>261</ele>
        <time>2016-05-31T00:35:25Z</time>
      </trkpt>
      <trkpt lat="43.50196" lon="5.97483">
        <ele>261</ele>
        <time>2016-05-31T00:37:25Z</time>
      </trkpt>
      <trkpt lat="43.50183" lon="5.97501">
        <ele>259</ele>
        <time>2016-05-31T00:39:25Z</time>
      </trkpt>
      <trkpt lat="43.50167" lon="5.97513">
        <ele>259</ele>
        <time>2016-05-31T00:41:25Z</time>
      </trkpt>
      <trkpt lat="43.50151" lon="5.97525">
        <ele>256</ele>
        <time>2016-05-31T00:43:25Z</time>
      </trkpt>
      <trkpt lat="43.50134" lon="5.97571">
        <ele>254</ele>
        <time>2016-05-31T00:45:25Z</time>
      </trkpt>
      <trkpt lat="43.50133" lon="5.97597">
        <ele>255</ele>
        <time>2016-05-31T00:47:25Z</time>
      </trkpt>
      <trkpt lat="43.50124" lon="5.97618">
        <ele>255</ele>
        <time>2016-05-31T00:49:25Z</time>
      </trkpt>
      <trkpt lat="43.50115" lon="5.9764">
        <ele>256</ele>
        <time>2016-05-31T00:51:25Z</time>
      </trkpt>
      <trkpt lat="43.50101" lon="5.97658">
        <ele>256</ele>
        <time>2016-05-31T00:53:25Z</time>
      </trkpt>
      <trkpt lat="43.50086" lon="5.97671">
        <ele>256</ele>
        <time>2016-05-31T00:55:25Z</time>
      </trkpt>
      <trkpt lat="43.5007" lon="5.97685">
        <ele>258</ele>
        <time>2016-05-31T00:57:25Z</time>
      </trkpt>
      <trkpt lat="43.50053" lon="5.97692">
        <ele>259</ele>
        <time>2016-05-31T00:59:25Z</time>
      </trkpt>
      <trkpt lat="43.50036" lon="5.97702">
        <ele>260</ele>
        <time>2016-05-31T01:01:25Z</time>
      </trkpt>
      <trkpt lat="43.50017" lon="5.97698">
        <ele>261</ele>
        <time>2016-05-31T01:03:25Z</time>
      </trkpt>
      <trkpt lat="43.5" lon="5.97689">
        <ele>262</ele>
        <time>2016-05-31T01:05:25Z</time>
      </trkpt>
      <trkpt lat="43.49981" lon="5.97685">
        <ele>264</ele>
        <time>2016-05-31T01:07:25Z</time>
      </trkpt>
      <trkpt lat="43.49963" lon="5.97677">
        <ele>265</ele>
        <time>2016-05-31T01:09:25Z</time>
      </trkpt>
      <trkpt lat="43.49944" lon="5.97675">
        <ele>268</ele>
        <time>2016-05-31T01:11:25Z</time>
      </trkpt>
      <trkpt lat="43.49928" lon="5.97663">
        <ele>269</ele>
        <time>2016-05-31T01:13:25Z</time>
      </trkpt>
      <trkpt lat="43.49917" lon="5.97644">
        <ele>269</ele>
        <time>2016-05-31T01:15:25Z</time>
      </trkpt>
      <trkpt lat="43.49898" lon="5.97636">
        <ele>271</ele>
        <time>2016-05-31T01:17:25Z</time>
      </trkpt>
      <trkpt lat="43.4988" lon="5.9764">
        <ele>274</ele>
        <time>2016-05-31T01:19:25Z</time>
      </trkpt>
      <trkpt lat="43.49862" lon="5.97635">
        <ele>277</ele>
        <time>2016-05-31T01:21:25Z</time>
      </trkpt>
      <trkpt lat="43.49844" lon="5.97629">
        <ele>280</ele>
        <time>2016-05-31T01:23:25Z</time>
      </trkpt>
      <trkpt lat="43.49828" lon="5.97619">
        <ele>283</ele>
        <time>2016-05-31T01:25:25Z</time>
      </trkpt>
      <trkpt lat="43.49809" lon="5.97621">
        <ele>284</ele>
        <time>2016-05-31T01:27:25Z</time>
      </trkpt>
      <trkpt lat="43.49792" lon="5.97628">
        <ele>285</ele>
        <time>2016-05-31T01:29:25Z</time>
      </trkpt>
      <trkpt lat="43.49774" lon="5.97621">
        <ele>286</ele>
        <time>2016-05-31T01:31:25Z</time>
      </trkpt>
      <trkpt lat="43.49755" lon="5.97618">
        <ele>288</ele>
        <time>2016-05-31T01:33:25Z</time>
      </trkpt>
      <trkpt lat="43.49737" lon="5.97613">
        <ele>288</ele>
        <time>2016-05-31T01:35:25Z</time>
      </trkpt>
      <trkpt lat="43.4972" lon="5.97602">
        <ele>289</ele>
        <time>2016-05-31T01:37:25Z</time>
      </trkpt>
      <trkpt lat="43.49712" lon="5.9758">
        <ele>290</ele>
        <time>2016-05-31T01:39:25Z</time>
      </trkpt>
      <trkpt lat="43.49714" lon="5.97554">
        <ele>290</ele>
        <time>2016-05-31T01:41:25Z</time>
      </trkpt>
      <trkpt lat="43.49701" lon="5.97535">
        <ele>290</ele>
        <time>2016-05-31T01:43:25Z</time>
      </trkpt>
      <trkpt lat="43.4968" lon="5.97532">
        <ele>290</ele>
        <time>2016-05-31T01:45:25Z</time>
      </trkpt>
      <trkpt lat="43.49664" lon="5.97521">
        <ele>291</ele>
        <time>2016-05-31T01:47:25Z</time>
      </trkpt>
      <trkpt lat="43.49646" lon="5.97527">
        <ele>292</ele>
        <time>2016-05-31T01:49:25Z</time>
      </trkpt>
      <trkpt lat="43.49628" lon="5.97531">
        <ele>293</ele>
        <time>2016-05-31T01:51:25Z</time>
      </trkpt>
      <trkpt lat="43.4961" lon="5.97528">
        <ele>293</ele>
        <time>2016-05-31T01:53:25Z</time>
      </trkpt>
      <trkpt lat="43.49591" lon="5.9752">
        <ele>295</ele>
        <time>2016-05-31T01:55:25Z</time>
      </trkpt>
      <trkpt lat="43.49573" lon="5.97517">
        <ele>296</ele>
        <time>2016-05-31T01:57:25Z</time>
      </trkpt>
      <trkpt lat="43.49559" lon="5.975">
        <ele>297</ele>
        <time>2016-05-31T01:59:25Z</time>
      </trkpt>
      <trkpt lat="43.49542" lon="5.97493">
        <ele>298</ele>
        <time>2016-05-31T02:01:25Z</time>
      </trkpt>
      <trkpt lat="43.49524" lon="5.97486">
        <ele>299</ele>
        <time>2016-05-31T02:03:25Z</time>
      </trkpt>
      <trkpt lat="43.4951" lon="5.97501">
        <ele>298</ele>
        <time>2016-05-31T02:05:25Z</time>
      </trkpt>
      <trkpt lat="43.49497" lon="5.9752">
        <ele>296</ele>
        <time>2016-05-31T02:07:25Z</time>
      </trkpt>
      <trkpt lat="43.49483" lon="5.97536">
        <ele>295</ele>
        <time>2016-05-31T02:09:25Z</time>
      </trkpt>
      <trkpt lat="43.49474" lon="5.97558">
        <ele>294</ele>
        <time>2016-05-31T02:11:25Z</time>
      </trkpt>
      <trkpt lat="43.49463" lon="5.97578">
        <ele>293</ele>
        <time>2016-05-31T02:13:25Z</time>
      </trkpt>
      <trkpt lat="43.49448" lon="5.97593">
        <ele>293</ele>
        <time>2016-05-31T02:15:25Z</time>
      </trkpt>
      <trkpt lat="43.49438" lon="5.97616">
        <ele>291</ele>
        <time>2016-05-31T02:17:25Z</time>
      </trkpt>
      <trkpt lat="43.49425" lon="5.97634">
        <ele>290</ele>
        <time>2016-05-31T02:19:25Z</time>
      </trkpt>
      <trkpt lat="43.49414" lon="5.97654">
        <ele>289</ele>
        <time>2016-05-31T02:21:25Z</time>
      </trkpt>
      <trkpt lat="43.49404" lon="5.97676">
        <ele>289</ele>
        <time>2016-05-31T02:23:25Z</time>
      </trkpt>
      <trkpt lat="43.49397" lon="5.97725">
        <ele>289</ele>
        <time>2016-05-31T02:25:25Z</time>
      </trkpt>
      <trkpt lat="43.494" lon="5.97752">
        <ele>287</ele>
        <time>2016-05-31T02:27:25Z</time>
      </trkpt>
      <trkpt lat="43.49414" lon="5.97769">
        <ele>286</ele>
        <time>2016-05-31T02:29:25Z</time>
      </trkpt>
      <trkpt lat="43.49424" lon="5.9779">
        <ele>285</ele>
        <time>2016-05-31T02:31:25Z</time>
      </trkpt>
      <trkpt lat="43.49435" lon="5.97812">
        <ele>285</ele>
        <time>2016-05-31T02:33:25Z</time>
      </trkpt>
      <trkpt lat="43.49449" lon="5.97828">
        <ele>284</ele>
        <time>2016-05-31T02:35:25Z</time>
      </trkpt>
      <trkpt lat="43.49458" lon="5.97851">
        <ele>284</ele>
        <time>2016-05-31T02:37:25Z</time>
      </trkpt>
      <trkpt lat="43.49456" lon="5.97876">
        <ele>285</ele>
        <time>2016-05-31T02:39:25Z</time>
      </trkpt>
      <trkpt lat="43.49451" lon="5.97901">
        <ele>285</ele>
        <time>2016-05-31T02:41:25Z</time>
      </trkpt>
      <trkpt lat="43.49441" lon="5.97923">
        <ele>286</ele>
        <time>2016-05-31T02:43:25Z</time>
      </trkpt>
      <trkpt lat="43.49429" lon="5.97944">
        <ele>289</ele>
        <time>2016-05-31T02:45:25Z</time>
      </trkpt>
      <trkpt lat="43.4941" lon="5.97941">
        <ele>289</ele>
        <time>2016-05-31T02:47:25Z</time>
      </trkpt>
      <trkpt lat="43.49398" lon="5.97921">
        <ele>288</ele>
        <time>2016-05-31T02:49:25Z</time>
      </trkpt>
      <trkpt lat="43.49381" lon="5.97912">
        <ele>288</ele>
        <time>2016-05-31T02:51:25Z</time>
      </trkpt>
      <trkpt lat="43.49362" lon="5.97907">
        <ele>289</ele>
        <time>2016-05-31T02:53:25Z</time>
      </trkpt>
      <trkpt lat="43.49344" lon="5.97904">
        <ele>290</ele>
        <time>2016-05-31T02:55:25Z</time>
      </trkpt>
      <trkpt lat="43.49329" lon="5.9792">
        <ele>291</ele>
        <time>2016-05-31T02:57:25Z</time>
      </trkpt>
      <trkpt lat="43.49324" lon="5.97945">
        <ele>292</ele>
        <time>2016-05-31T02:59:25Z</time>
      </trkpt>
      <trkpt lat="43.49318" lon="5.97969">
        <ele>292</ele>
        <time>2016-05-31T03:01:25Z</time>
      </trkpt>
      <trkpt lat="43.49308" lon="5.97992">
        <ele>293</ele>
        <time>2016-05-31T03:03:25Z</time>
      </trkpt>
      <trkpt lat="43.49291" lon="5.98002">
        <ele>294</ele>
        <time>2016-05-31T03:05:25Z</time>
      </trkpt>
      <trkpt lat="43.49273" lon="5.97995">
        <ele>294</ele>
        <time>2016-05-31T03:07:25Z</time>
      </trkpt>
      <trkpt lat="43.49254" lon="5.97989">
        <ele>296</ele>
        <time>2016-05-31T03:09:25Z</time>
      </trkpt>
      <trkpt lat="43.49238" lon="5.98003">
        <ele>296</ele>
        <time>2016-05-31T03:11:25Z</time>
      </trkpt>
      <trkpt lat="43.49222" lon="5.98014">
        <ele>298</ele>
        <time>2016-05-31T03:13:25Z</time>
      </trkpt>
      <trkpt lat="43.49208" lon="5.9803">
        <ele>299</ele>
        <time>2016-05-31T03:15:25Z</time>
      </trkpt>
      <trkpt lat="43.49189" lon="5.98034">
        <ele>300</ele>
        <time>2016-05-31T03:17:25Z</time>
      </trkpt>
      <trkpt lat="43.49171" lon="5.98033">
        <ele>301</ele>
        <time>2016-05-31T03:19:25Z</time>
      </trkpt>
      <trkpt lat="43.49153" lon="5.98034">
        <ele>302</ele>
        <time>2016-05-31T03:21:25Z</time>
      </trkpt>
      <trkpt lat="43.49119" lon="5.98054">
        <ele>305</ele>
        <time>2016-05-31T03:23:25Z</time>
      </trkpt>
      <trkpt lat="43.49105" lon="5.98071">
        <ele>305</ele>
        <time>2016-05-31T03:25:25Z</time>
      </trkpt>
      <trkpt lat="43.49087" lon="5.9808">
        <ele>304</ele>
        <time>2016-05-31T03:27:25Z</time>
      </trkpt>
      <trkpt lat="43.49069" lon="5.98084">
        <ele>306</ele>
        <time>2016-05-31T03:29:25Z</time>
      </trkpt>
      <trkpt lat="43.49051" lon="5.98087">
        <ele>308</ele>
        <time>2016-05-31T03:31:25Z</time>
      </trkpt>
      <trkpt lat="43.49041" lon="5.98109">
        <ele>308</ele>
        <time>2016-05-31T03:33:25Z</time>
      </trkpt>
      <trkpt lat="43.49027" lon="5.98127">
        <ele>308</ele>
        <time>2016-05-31T03:35:25Z</time>
      </trkpt>
      <trkpt lat="43.49005" lon="5.98168">
        <ele>305</ele>
        <time>2016-05-31T03:37:25Z</time>
      </trkpt>
      <trkpt lat="43.48984" lon="5.9821">
        <ele>309</ele>
        <time>2016-05-31T03:39:25Z</time>
      </trkpt>
      <trkpt lat="43.48969" lon="5.98226">
        <ele>310</ele>
        <time>2016-05-31T03:41:25Z</time>
      </trkpt>
      <trkpt lat="43.4896" lon="5.98249">
        <ele>310</ele>
        <time>2016-05-31T03:43:25Z</time>
      </trkpt>
      <trkpt lat="43.48953" lon="5.98272">
        <ele>311</ele>
        <time>2016-05-31T03:45:25Z</time>
      </trkpt>
      <trkpt lat="43.48946" lon="5.98295">
        <ele>312</ele>
        <time>2016-05-31T03:47:25Z</time>
      </trkpt>
      <trkpt lat="43.48936" lon="5.98316">
        <ele>312</ele>
        <time>2016-05-31T03:49:25Z</time>
      </trkpt>
      <trkpt lat="43.48922" lon="5.98335">
        <ele>310</ele>
        <time>2016-05-31T03:51:25Z</time>
      </trkpt>
      <trkpt lat="43.4891" lon="5.98355">
        <ele>311</ele>
        <time>2016-05-31T03:53:25Z</time>
      </trkpt>
      <trkpt lat="43.48893" lon="5.98414">
        <ele>316</ele>
        <time>2016-05-31T03:55:25Z</time>
      </trkpt>
      <trkpt lat="43.48909" lon="5.98393">
        <ele>316</ele>
        <time>2016-05-31T03:57:25Z</time>
      </trkpt>
      <trkpt lat="43.48899" lon="5.98415">
        <ele>317</ele>
        <time>2016-05-31T03:59:25Z</time>
      </trkpt>
      <trkpt lat="43.48895" lon="5.9844">
        <ele>318</ele>
        <time>2016-05-31T04:01:25Z</time>
      </trkpt>
      <trkpt lat="43.48886" lon="5.98462">
        <ele>318</ele>
        <time>2016-05-31T04:03:25Z</time>
      </trkpt>
      <trkpt lat="43.48884" lon="5.98488">
        <ele>320</ele>
        <time>2016-05-31T04:05:25Z</time>
      </trkpt>
      <trkpt lat="43.48871" lon="5.98507">
        <ele>318</ele>
        <time>2016-05-31T04:07:25Z</time>
      </trkpt>
      <trkpt lat="43.48858" lon="5.98525">
        <ele>316</ele>
        <time>2016-05-31T04:09:25Z</time>
      </trkpt>
      <trkpt lat="43.48851" lon="5.98548">
        <ele>315</ele>
        <time>2016-05-31T04:11:25Z</time>
      </trkpt>
      <trkpt lat="43.4885" lon="5.98573">
        <ele>316</ele>
        <time>2016-05-31T04:13:25Z</time>
      </trkpt>
      <trkpt lat="43.48864" lon="5.98592">
        <ele>319</ele>
        <time>2016-05-31T04:15:25Z</time>
      </trkpt>
      <trkpt lat="43.48875" lon="5.98611">
        <ele>321</ele>
        <time>2016-05-31T04:17:25Z</time>
      </trkpt>
      <trkpt lat="43.48886" lon="5.98633">
        <ele>323</ele>
        <time>2016-05-31T04:19:25Z</time>
      </trkpt>
      <trkpt lat="43.4888" lon="5.98657">
        <ele>323</ele>
        <time>2016-05-31T04:21:25Z</time>
      </trkpt>
      <trkpt lat="43.48868" lon="5.98678">
        <ele>323</ele>
        <time>2016-05-31T04:23:25Z</time>
      </trkpt>
      <trkpt lat="43.48854" lon="5.98694">
        <ele>323</ele>
        <time>2016-05-31T04:25:25Z</time>
      </trkpt>
      <trkpt lat="43.48841" lon="5.98713">
        <ele>323</ele>
        <time>2016-05-31T04:27:25Z</time>
      </trkpt>
      <trkpt lat="43.48826" lon="5.98728">
        <ele>324</ele>
        <time>2016-05-31T04:29:25Z</time>
      </trkpt>
      <trkpt lat="43.48813" lon="5.98746">
        <ele>324</ele>
        <time>2016-05-31T04:31:25Z</time>
      </trkpt>
      <trkpt lat="43.48808" lon="5.9877">
        <ele>326</ele>
        <time>2016-05-31T04:33:25Z</time>
      </trkpt>
      <trkpt lat="43.48791" lon="5.98777">
        <ele>325</ele>
        <time>2016-05-31T04:35:25Z</time>
      </trkpt>
      <trkpt lat="43.48777" lon="5.98794">
        <ele>325</ele>
        <time>2016-05-31T04:37:25Z</time>
      </trkpt>
      <trkpt lat="43.4876" lon="5.98805">
        <ele>324</ele>
        <time>2016-05-31T04:39:25Z</time>
      </trkpt>
      <trkpt lat="43.48744" lon="5.9882">
        <ele>324</ele>
        <time>2016-05-31T04:41:25Z</time>
      </trkpt>
      <trkpt lat="43.4873" lon="5.98838">
        <ele>325</ele>
        <time>2016-05-31T04:43:25Z</time>
      </trkpt>
      <trkpt lat="43.48723" lon="5.98861">
        <ele>327</ele>
        <time>2016-05-31T04:45:25Z</time>
      </trkpt>
      <trkpt lat="43.48712" lon="5.98881">
        <ele>328</ele>
        <time>2016-05-31T04:47:25Z</time>
      </trkpt>
      <trkpt lat="43.48695" lon="5.98891">
        <ele>327</ele>
        <time>2016-05-31T04:49:25Z</time>
      </trkpt>
      <trkpt lat="43.48692" lon="5.98916">
        <ele>328</ele>
        <time>2016-05-31T04:51:25Z</time>
      </trkpt>
      <trkpt lat="43.48692" lon="5.98942">
        <ele>329</ele>
        <time>2016-05-31T04:53:25Z</time>
      </trkpt>
      <trkpt lat="43.48691" lon="5.98968">
        <ele>329</ele>
        <time>2016-05-31T04:55:25Z</time>
      </trkpt>
      <trkpt lat="43.48687" lon="5.98992">
        <ele>329</ele>
        <time>2016-05-31T04:57:25Z</time>
      </trkpt>
      <trkpt lat="43.4868" lon="5.99017">
        <ele>329</ele>
        <time>2016-05-31T04:59:25Z</time>
      </trkpt>
      <trkpt lat="43.48676" lon="5.99042">
        <ele>328</ele>
        <time>2016-05-31T05:01:25Z</time>
      </trkpt>
      <trkpt lat="43.48661" lon="5.99054">
        <ele>327</ele>
        <time>2016-05-31T05:03:25Z</time>
      </trkpt>
      <trkpt lat="43.48654" lon="5.99079">
        <ele>328</ele>
        <time>2016-05-31T05:05:25Z</time>
      </trkpt>
      <trkpt lat="43.48651" lon="5.99104">
        <ele>328</ele>
        <time>2016-05-31T05:07:25Z</time>
      </trkpt>
      <trkpt lat="43.48659" lon="5.99127">
        <ele>326</ele>
        <time>2016-05-31T05:09:25Z</time>
      </trkpt>
      <trkpt lat="43.48671" lon="5.99146">
        <ele>326</ele>
        <time>2016-05-31T05:11:25Z</time>
      </trkpt>
      <trkpt lat="43.48673" lon="5.99171">
        <ele>325</ele>
        <time>2016-05-31T05:13:25Z</time>
      </trkpt>
      <trkpt lat="43.48681" lon="5.99195">
        <ele>324</ele>
        <time>2016-05-31T05:15:25Z</time>
      </trkpt>
      <trkpt lat="43.48688" lon="5.9922">
        <ele>323</ele>
        <time>2016-05-31T05:17:25Z</time>
      </trkpt>
      <trkpt lat="43.48691" lon="5.99245">
        <ele>321</ele>
        <time>2016-05-31T05:19:25Z</time>
      </trkpt>
      <trkpt lat="43.48703" lon="5.99263">
        <ele>320</ele>
        <time>2016-05-31T05:21:25Z</time>
      </trkpt>
      <trkpt lat="43.48718" lon="5.9928">
        <ele>319</ele>
        <time>2016-05-31T05:23:25Z</time>
      </trkpt>
      <trkpt lat="43.48733" lon="5.99293">
        <ele>318</ele>
        <time>2016-05-31T05:25:25Z</time>
      </trkpt>
      <trkpt lat="43.4875" lon="5.99304">
        <ele>317</ele>
        <time>2016-05-31T05:27:25Z</time>
      </trkpt>
      <trkpt lat="43.48774" lon="5.99343">
        <ele>315</ele>
        <time>2016-05-31T05:29:25Z</time>
      </trkpt>
      <trkpt lat="43.48789" lon="5.9936">
        <ele>315</ele>
        <time>2016-05-31T05:31:25Z</time>
      </trkpt>
      <trkpt lat="43.48794" lon="5.99385">
        <ele>313</ele>
        <time>2016-05-31T05:33:25Z</time>
      </trkpt>
      <trkpt lat="43.48802" lon="5.99409">
        <ele>311</ele>
        <time>2016-05-31T05:35:25Z</time>
      </trkpt>
      <trkpt lat="43.48807" lon="5.99434">
        <ele>309</ele>
        <time>2016-05-31T05:37:25Z</time>
      </trkpt>
      <trkpt lat="43.4882" lon="5.99453">
        <ele>308</ele>
        <time>2016-05-31T05:39:25Z</time>
      </trkpt>
      <trkpt lat="43.48834" lon="5.99471">
        <ele>306</ele>
        <time>2016-05-31T05:41:25Z</time>
      </trkpt>
      <trkpt lat="43.48841" lon="5.99495">
        <ele>303</ele>
        <time>2016-05-31T05:43:25Z</time>
      </trkpt>
      <trkpt lat="43.48859" lon="5.99495">
        <ele>303</ele>
        <time>2016-05-31T05:45:25Z</time>
      </trkpt>
      <trkpt lat="43.48878" lon="5.99498">
        <ele>303</ele>
        <time>2016-05-31T05:47:25Z</time>
      </trkpt>
      <trkpt lat="43.48897" lon="5.99506">
        <ele>304</ele>
        <time>2016-05-31T05:49:25Z</time>
      </trkpt>
      <trkpt lat="43.48914" lon="5.99516">
        <ele>304</ele>
        <time>2016-05-31T05:51:25Z</time>
      </trkpt>
      <trkpt lat="43.48931" lon="5.99524">
        <ele>303</ele>
        <time>2016-05-31T05:53:25Z</time>
      </trkpt>
      <trkpt lat="43.4895" lon="5.99529">
        <ele>302</ele>
        <time>2016-05-31T05:55:25Z</time>
      </trkpt>
      <trkpt lat="43.48965" lon="5.99543">
        <ele>300</ele>
        <time>2016-05-31T05:57:25Z</time>
      </trkpt>
      <trkpt lat="43.48977" lon="5.99563">
        <ele>297</ele>
        <time>2016-05-31T05:59:25Z</time>
      </trkpt>
      <trkpt lat="43.48983" lon="5.99587">
        <ele>294</ele>
        <time>2016-05-31T06:01:25Z</time>
      </trkpt>
      <trkpt lat="43.48993" lon="5.99608">
        <ele>294</ele>
        <time>2016-05-31T06:03:25Z</time>
      </trkpt>
      <trkpt lat="43.49004" lon="5.99628">
        <ele>293</ele>
        <time>2016-05-31T06:05:25Z</time>
      </trkpt>
      <trkpt lat="43.4902" lon="5.99642">
        <ele>291</ele>
        <time>2016-05-31T06:07:25Z</time>
      </trkpt>
      <trkpt lat="43.49034" lon="5.99658">
        <ele>289</ele>
        <time>2016-05-31T06:09:25Z</time>
      </trkpt>
      <trkpt lat="43.49049" lon="5.99673">
        <ele>287</ele>
        <time>2016-05-31T06:11:25Z</time>
      </trkpt>
      <trkpt lat="43.4906" lon="5.99694">
        <ele>288</ele>
        <time>2016-05-31T06:13:25Z</time>
      </trkpt>
      <trkpt lat="43.49077" lon="5.99705">
        <ele>287</ele>
        <time>2016-05-31T06:15:25Z</time>
      </trkpt>
      <trkpt lat="43.49088" lon="5.99724">
        <ele>288</ele>
        <time>2016-05-31T06:17:25Z</time>
      </trkpt>
      <trkpt lat="43.49102" lon="5.99742">
        <ele>289</ele>
        <time>2016-05-31T06:19:25Z</time>
      </trkpt>
      <trkpt lat="43.49117" lon="5.99757">
        <ele>288</ele>
        <time>2016-05-31T06:21:25Z</time>
      </trkpt>
      <trkpt lat="43.49129" lon="5.99776">
        <ele>290</ele>
        <time>2016-05-31T06:23:25Z</time>
      </trkpt>
      <trkpt lat="43.49146" lon="5.99782">
        <ele>288</ele>
        <time>2016-05-31T06:25:25Z</time>
      </trkpt>
      <trkpt lat="43.49164" lon="5.99789">
        <ele>286</ele>
        <time>2016-05-31T06:27:25Z</time>
      </trkpt>
      <trkpt lat="43.49183" lon="5.99789">
        <ele>284</ele>
        <time>2016-05-31T06:29:25Z</time>
      </trkpt>
      <trkpt lat="43.49202" lon="5.99787">
        <ele>283</ele>
        <time>2016-05-31T06:31:25Z</time>
      </trkpt>
      <trkpt lat="43.4922" lon="5.99784">
        <ele>282</ele>
        <time>2016-05-31T06:33:25Z</time>
      </trkpt>
      <trkpt lat="43.49237" lon="5.99774">
        <ele>280</ele>
        <time>2016-05-31T06:35:25Z</time>
      </trkpt>
      <trkpt lat="43.49252" lon="5.99757">
        <ele>277</ele>
        <time>2016-05-31T06:37:25Z</time>
      </trkpt>
      <trkpt lat="43.49271" lon="5.99761">
        <ele>276</ele>
        <time>2016-05-31T06:39:25Z</time>
      </trkpt>
      <trkpt lat="43.4929" lon="5.99764">
        <ele>274</ele>
        <time>2016-05-31T06:41:25Z</time>
      </trkpt>
      <trkpt lat="43.49306" lon="5.99776">
        <ele>274</ele>
        <time>2016-05-31T06:43:25Z</time>
      </trkpt>
      <trkpt lat="43.49325" lon="5.99774">
        <ele>272</ele>
        <time>2016-05-31T06:45:25Z</time>
      </trkpt>
      <trkpt lat="43.49343" lon="5.99781">
        <ele>272</ele>
        <time>2016-05-31T06:47:25Z</time>
      </trkpt>
      <trkpt lat="43.49361" lon="5.99787">
        <ele>272</ele>
        <time>2016-05-31T06:49:25Z</time>
      </trkpt>
      <trkpt lat="43.4938" lon="5.99787">
        <ele>272</ele>
        <time>2016-05-31T06:51:25Z</time>
      </trkpt>
      <trkpt lat="43.49397" lon="5.99781">
        <ele>270</ele>
        <time>2016-05-31T06:53:25Z</time>
      </trkpt>
      <trkpt lat="43.49416" lon="5.99781">
        <ele>270</ele>
        <time>2016-05-31T06:55:25Z</time>
      </trkpt>
      <trkpt lat="43.49435" lon="5.99777">
        <ele>268</ele>
        <time>2016-05-31T06:57:25Z</time>
      </trkpt>
      <trkpt lat="43.49454" lon="5.99778">
        <ele>267</ele>
        <time>2016-05-31T06:59:25Z</time>
      </trkpt>
      <trkpt lat="43.49472" lon="5.99783">
        <ele>267</ele>
        <time>2016-05-31T07:01:25Z</time>
      </trkpt>
      <trkpt lat="43.49487" lon="5.99797">
        <ele>267</ele>
        <time>2016-05-31T07:03:25Z</time>
      </trkpt>
      <trkpt lat="43.49503" lon="5.99811">
        <ele>267</ele>
        <time>2016-05-31T07:05:25Z</time>
      </trkpt>
      <trkpt lat="43.49492" lon="5.9979">
        <ele>266</ele>
        <time>2016-05-31T07:07:25Z</time>
      </trkpt>
      <trkpt lat="43.49476" lon="5.99778">
        <ele>266</ele>
        <time>2016-05-31T07:09:25Z</time>
      </trkpt>
      <trkpt lat="43.49458" lon="5.9977">
        <ele>266</ele>
        <time>2016-05-31T07:11:25Z</time>
      </trkpt>
      <trkpt lat="43.4944" lon="5.99771">
        <ele>267</ele>
        <time>2016-05-31T07:13:25Z</time>
      </trkpt>
      <trkpt lat="43.49421" lon="5.99773">
        <ele>268</ele>
        <time>2016-05-31T07:15:25Z</time>
      </trkpt>
      <trkpt lat="43.49432" lon="5.99793">
        <ele>271</ele>
        <time>2016-05-31T07:17:25Z</time>
      </trkpt>
      <trkpt lat="43.49447" lon="5.99807">
        <ele>271</ele>
        <time>2016-05-31T07:19:25Z</time>
      </trkpt>
      <trkpt lat="43.4946" lon="5.99826">
        <ele>272</ele>
        <time>2016-05-31T07:21:25Z</time>
      </trkpt>
      <trkpt lat="43.4947" lon="5.99848">
        <ele>274</ele>
        <time>2016-05-31T07:23:25Z</time>
      </trkpt>
      <trkpt lat="43.49476" lon="5.99873">
        <ele>277</ele>
        <time>2016-05-31T07:25:25Z</time>
      </trkpt>
      <trkpt lat="43.49471" lon="5.99897">
        <ele>281</ele>
        <time>2016-05-31T07:27:25Z</time>
      </trkpt>
      <trkpt lat="43.49467" lon="5.99922">
        <ele>285</ele>
        <time>2016-05-31T07:29:25Z</time>
      </trkpt>
      <trkpt lat="43.49463" lon="5.99948">
        <ele>286</ele>
        <time>2016-05-31T07:31:25Z</time>
      </trkpt>
      <trkpt lat="43.49456" lon="5.99972">
        <ele>289</ele>
        <time>2016-05-31T07:33:25Z</time>
      </trkpt>
      <trkpt lat="43.49452" lon="5.99997">
        <ele>291</ele>
        <time>2016-05-31T07:35:25Z</time>
      </trkpt>
      <trkpt lat="43.49454" lon="6.00022">
        <ele>290</ele>
        <time>2016-05-31T07:37:25Z</time>
      </trkpt>
      <trkpt lat="43.49451" lon="6.00048">
        <ele>291</ele>
        <time>2016-05-31T07:39:25Z</time>
      </trkpt>
      <trkpt lat="43.49456" lon="6.00072">
        <ele>291</ele>
        <time>2016-05-31T07:41:25Z</time>
      </trkpt>
      <trkpt lat="43.49464" lon="6.00096">
        <ele>289</ele>
        <time>2016-05-31T07:43:25Z</time>
      </trkpt>
      <trkpt lat="43.49471" lon="6.00119">
        <ele>288</ele>
        <time>2016-05-31T07:45:25Z</time>
      </trkpt>
      <trkpt lat="43.49464" lon="6.00143">
        <ele>288</ele>
        <time>2016-05-31T07:47:25Z</time>
      </trkpt>
      <trkpt lat="43.49467" lon="6.00168">
        <ele>286</ele>
        <time>2016-05-31T07:49:25Z</time>
      </trkpt>
      <trkpt lat="43.49475" lon="6.00191">
        <ele>283</ele>
        <time>2016-05-31T07:51:25Z</time>
      </trkpt>
      <trkpt lat="43.4948" lon="6.00214">
        <ele>281</ele>
        <time>2016-05-31T07:53:25Z</time>
      </trkpt>
      <trkpt lat="43.49485" lon="6.00239">
        <ele>279</ele>
        <time>2016-05-31T07:55:25Z</time>
      </trkpt>
      <trkpt lat="43.49482" lon="6.00264">
        <ele>278</ele>
        <time>2016-05-31T07:57:25Z</time>
      </trkpt>
      <trkpt lat="43.49464" lon="6.00308">
        <ele>277</ele>
        <time>2016-05-31T07:59:25Z</time>
      </trkpt>
      <trkpt lat="43.49453" lon="6.0033">
        <ele>277</ele>
        <time>2016-05-31T08:01:25Z</time>
      </trkpt>
      <trkpt lat="43.49439" lon="6.00347">
        <ele>276</ele>
        <time>2016-05-31T08:03:25Z</time>
      </trkpt>
      <trkpt lat="43.49427" lon="6.00366">
        <ele>276</ele>
        <time>2016-05-31T08:05:25Z</time>
      </trkpt>
      <trkpt lat="43.49419" lon="6.00389">
        <ele>275</ele>
        <time>2016-05-31T08:07:25Z</time>
      </trkpt>
      <trkpt lat="43.49424" lon="6.00414">
        <ele>273</ele>
        <time>2016-05-31T08:09:25Z</time>
      </trkpt>
      <trkpt lat="43.49446" lon="6.00428">
        <ele>271</ele>
        <time>2016-05-31T08:11:25Z</time>
      </trkpt>
      <trkpt lat="43.49456" lon="6.0045">
        <ele>270</ele>
        <time>2016-05-31T08:13:25Z</time>
      </trkpt>
      <trkpt lat="43.49458" lon="6.00476">
        <ele>270</ele>
        <time>2016-05-31T08:15:25Z</time>
      </trkpt>
      <trkpt lat="43.49457" lon="6.00501">
        <ele>269</ele>
        <time>2016-05-31T08:17:25Z</time>
      </trkpt>
      <trkpt lat="43.49458" lon="6.00527">
        <ele>270</ele>
        <time>2016-05-31T08:19:25Z</time>
      </trkpt>
      <trkpt lat="43.49457" lon="6.00552">
        <ele>271</ele>
        <time>2016-05-31T08:21:25Z</time>
      </trkpt>
      <trkpt lat="43.49462" lon="6.00577">
        <ele>272</ele>
        <time>2016-05-31T08:23:25Z</time>
      </trkpt>
      <trkpt lat="43.4946" lon="6.00603">
        <ele>274</ele>
        <time>2016-05-31T08:25:25Z</time>
      </trkpt>
      <trkpt lat="43.49473" lon="6.00621">
        <ele>277</ele>
        <time>2016-05-31T08:27:25Z</time>
      </trkpt>
      <trkpt lat="43.49487" lon="6.00637">
        <ele>281</ele>
        <time>2016-05-31T08:29:25Z</time>
      </trkpt>
      <trkpt lat="43.49499" lon="6.00657">
        <ele>285</ele>
        <time>2016-05-31T08:31:25Z</time>
      </trkpt>
      <trkpt lat="43.49505" lon="6.00681">
        <ele>284</ele>
        <time>2016-05-31T08:33:25Z</time>
      </trkpt>
      <trkpt lat="43.49493" lon="6.007">
        <ele>283</ele>
        <time>2016-05-31T08:35:25Z</time>
      </trkpt>
      <trkpt lat="43.49482" lon="6.00722">
        <ele>281</ele>
        <time>2016-05-31T08:37:25Z</time>
      </trkpt>
      <trkpt lat="43.49479" lon="6.00748">
        <ele>280</ele>
        <time>2016-05-31T08:39:25Z</time>
      </trkpt>
      <trkpt lat="43.49474" lon="6.00772">
        <ele>278</ele>
        <time>2016-05-31T08:41:25Z</time>
      </trkpt>
      <trkpt lat="43.49472" lon="6.00797">
        <ele>275</ele>
        <time>2016-05-31T08:43:25Z</time>
      </trkpt>
      <trkpt lat="43.49471" lon="6.00822">
        <ele>272</ele>
        <time>2016-05-31T08:45:25Z</time>
      </trkpt>
      <trkpt lat="43.49467" lon="6.00847">
        <ele>270</ele>
        <time>2016-05-31T08:47:25Z</time>
      </trkpt>
      <trkpt lat="43.49466" lon="6.00875">
        <ele>268</ele>
        <time>2016-05-31T08:49:25Z</time>
      </trkpt>
      <trkpt lat="43.49484" lon="6.0088">
        <ele>266</ele>
        <time>2016-05-31T08:51:25Z</time>
      </trkpt>
      <trkpt lat="43.49501" lon="6.00872">
        <ele>266</ele>
        <time>2016-05-31T08:53:25Z</time>
      </trkpt>
      <trkpt lat="43.49509" lon="6.00895">
        <ele>264</ele>
        <time>2016-05-31T08:55:25Z</time>
      </trkpt>
      <trkpt lat="43.49527" lon="6.00901">
        <ele>264</ele>
        <time>2016-05-31T08:57:25Z</time>
      </trkpt>
      <trkpt lat="43.49544" lon="6.00892">
        <ele>263</ele>
        <time>2016-05-31T08:59:25Z</time>
      </trkpt>
      <trkpt lat="43.49562" lon="6.00885">
        <ele>263</ele>
        <time>2016-05-31T09:01:25Z</time>
      </trkpt>
      <trkpt lat="43.49579" lon="6.00881">
        <ele>262</ele>
        <time>2016-05-31T09:03:25Z</time>
      </trkpt>
      <trkpt lat="43.49597" lon="6.00872">
        <ele>260</ele>
        <time>2016-05-31T09:05:25Z</time>
      </trkpt>
      <trkpt lat="43.49612" lon="6.00859">
        <ele>259</ele>
        <time>2016-05-31T09:07:25Z</time>
      </trkpt>
      <trkpt lat="43.4963" lon="6.00854">
        <ele>258</ele>
        <time>2016-05-31T09:09:25Z</time>
      </trkpt>
      <trkpt lat="43.49648" lon="6.00847">
        <ele>257</ele>
        <time>2016-05-31T09:11:25Z</time>
      </trkpt>
      <trkpt lat="43.49666" lon="6.00838">
        <ele>255</ele>
        <time>2016-05-31T09:13:25Z</time>
      </trkpt>
      <trkpt lat="43.49684" lon="6.00843">
        <ele>256</ele>
        <time>2016-05-31T09:15:25Z</time>
      </trkpt>
      <trkpt lat="43.49701" lon="6.00854">
        <ele>256</ele>
        <time>2016-05-31T09:17:25Z</time>
      </trkpt>
      <trkpt lat="43.49704" lon="6.0088">
        <ele>257</ele>
        <time>2016-05-31T09:19:25Z</time>
      </trkpt>
      <trkpt lat="43.49724" lon="6.00923">
        <ele>256</ele>
        <time>2016-05-31T09:21:25Z</time>
      </trkpt>
      <trkpt lat="43.4974" lon="6.00935">
        <ele>255</ele>
        <time>2016-05-31T09:23:25Z</time>
      </trkpt>
      <trkpt lat="43.49753" lon="6.00953">
        <ele>255</ele>
        <time>2016-05-31T09:25:25Z</time>
      </trkpt>
      <trkpt lat="43.49766" lon="6.00972">
        <ele>255</ele>
        <time>2016-05-31T09:27:25Z</time>
      </trkpt>
      <trkpt lat="43.49783" lon="6.00984">
        <ele>256</ele>
        <time>2016-05-31T09:29:25Z</time>
      </trkpt>
      <trkpt lat="43.49799" lon="6.00994">
        <ele>257</ele>
        <time>2016-05-31T09:31:25Z</time>
      </trkpt>
      <trkpt lat="43.49818" lon="6.00995">
        <ele>257</ele>
        <time>2016-05-31T09:33:25Z</time>
      </trkpt>
      <trkpt lat="43.49837" lon="6.00994">
        <ele>258</ele>
        <time>2016-05-31T09:35:25Z</time>
      </trkpt>
      <trkpt lat="43.49855" lon="6.00988">
        <ele>257</ele>
        <time>2016-05-31T09:37:25Z</time>
      </trkpt>
      <trkpt lat="43.49868" lon="6.0097">
        <ele>257</ele>
        <time>2016-05-31T09:39:25Z</time>
      </trkpt>
      <trkpt lat="43.49877" lon="6.00949">
        <ele>257</ele>
        <time>2016-05-31T09:41:25Z</time>
      </trkpt>
      <trkpt lat="43.49896" lon="6.00948">
        <ele>258</ele>
        <time>2016-05-31T09:43:25Z</time>
      </trkpt>
    </trkseg>
  </trk>
</gpx>